Time;durP1;ratioP1;P1;durP2;ratioP2;P2;SDS_P1;SDS_P2;PMS_P1;PMS_P2;Temp;Humidity;BMP_temperature;BMP_pressure;BME280_temperature;BME280_humidity;BME280_pressure;Samples;Min_cycle;Max_cycle;Signal;HPM_P1;HPM_P2
2022/05/18 03:02:11;;;;;;;13.02;7.55;;;16.00;99.90;;;;;;5188187;23;20047;-78
2022/05/18 03:04:36;;;;;;;10.10;6.00;;;15.90;99.90;;;;;;4943224;28;20039;-82
2022/05/18 03:07:02;;;;;;;13.10;7.53;;;15.90;99.90;;;;;;4959054;28;20042;-81
2022/05/18 03:09:28;;;;;;;11.57;7.80;;;15.90;99.90;;;;;;4976189;28;20049;-81
2022/05/18 03:11:53;;;;;;;11.38;6.95;;;15.80;99.90;;;;;;4976213;28;20126;-81
2022/05/18 03:14:19;;;;;;;10.27;6.75;;;15.80;99.90;;;;;;4958848;28;20174;-81
2022/05/18 03:16:45;;;;;;;13.07;8.02;;;15.80;99.90;;;;;;4958836;28;20445;-82
2022/05/18 03:19:13;;;;;;;13.73;7.43;;;15.70;99.90;;;;;;4958868;28;20034;-82
2022/05/18 03:24:23;;;;;;;12.93;7.90;;;15.60;99.90;;;;;;4958915;28;20403;-81
2022/05/18 03:26:49;;;;;;;17.65;7.95;;;15.60;99.90;;;;;;4975915;28;20058;-81
2022/05/18 03:29:15;;;;;;;13.10;8.38;;;15.60;99.90;;;;;;4976156;28;20043;-81
2022/05/18 03:31:41;;;;;;;11.07;7.93;;;15.60;99.90;;;;;;4975990;28;20074;-80
2022/05/18 03:34:08;;;;;;;14.55;7.90;;;15.50;99.90;;;;;;4958706;28;20478;-81
2022/05/18 03:36:34;;;;;;;15.68;8.15;;;15.40;99.90;;;;;;4958378;28;20117;-81
2022/05/18 03:39:01;;;;;;;13.00;8.77;;;15.50;99.90;;;;;;4958065;28;20440;-80
2022/05/18 03:41:26;;;;;;;16.45;9.02;;;15.50;99.90;;;;;;4975563;28;20087;-81
2022/05/18 03:43:53;;;;;;;14.55;7.50;;;15.40;99.90;;;;;;4942054;28;20402;-81
2022/05/18 03:46:18;;;;;;;16.35;8.23;;;15.40;99.90;;;;;;4958300;28;20590;-81
2022/05/18 03:48:44;;;;;;;15.63;8.57;;;15.40;99.90;;;;;;4959232;28;20114;-80
2022/05/18 03:51:13;;;;;;;13.77;7.85;;;15.40;99.90;;;;;;4957924;28;20502;-80
2022/05/18 03:53:39;;;;;;;13.02;8.13;;;15.40;99.90;;;;;;4942313;28;20039;-81
2022/05/18 03:56:05;;;;;;;14.25;9.00;;;15.30;99.90;;;;;;4958043;28;20047;-81
2022/05/18 03:58:31;;;;;;;13.95;9.38;;;15.30;99.90;;;;;;4975260;28;20043;-81
2022/05/18 04:01:00;;;;;;;13.88;8.77;;;15.40;99.90;;;;;;4975036;28;20081;-81
2022/05/18 04:03:28;;;;;;;14.90;8.75;;;15.30;99.90;;;;;;4958092;28;20046;-80
2022/05/18 04:05:54;;;;;;;14.57;8.65;;;15.40;99.90;;;;;;4957749;28;20054;-79
2022/05/18 04:08:21;;;;;;;12.60;8.48;;;15.40;99.90;;;;;;4956902;28;20095;-81
2022/05/18 04:10:46;;;;;;;16.98;9.23;;;15.30;99.90;;;;;;4942031;28;20045;-82
2022/05/18 04:13:20;;;;;;;17.83;9.77;;;15.30;99.90;;;;;;4974913;28;20538;-81
2022/05/18 04:15:46;;;;;;;15.95;9.43;;;15.40;99.90;;;;;;4957933;28;20102;-80
2022/05/18 04:18:12;;;;;;;14.18;8.88;;;15.40;99.90;;;;;;4957714;28;20109;-82
2022/05/18 04:20:39;;;;;;;16.73;9.68;;;15.40;99.90;;;;;;4957493;28;20491;-80
2022/05/18 04:23:06;;;;;;;16.88;9.38;;;15.40;99.90;;;;;;4958184;28;20375;-80
2022/05/18 04:25:31;;;;;;;16.83;10.10;;;15.40;99.90;;;;;;4957506;28;20173;-82
2022/05/18 04:27:57;;;;;;;14.98;9.55;;;15.40;99.90;;;;;;4974997;28;20517;-80
2022/05/18 04:30:26;;;;;;;15.55;9.30;;;15.40;99.90;;;;;;4974680;28;20117;-81
2022/05/18 04:32:53;;;;;;;15.98;10.48;;;15.40;99.90;;;;;;4957227;28;20058;-81
2022/05/18 04:35:21;;;;;;;15.80;9.50;;;15.40;99.90;;;;;;4974906;28;20039;-81
2022/05/18 04:37:47;;;;;;;14.27;10.05;;;15.50;99.90;;;;;;4941354;28;20121;-81
2022/05/18 04:40:13;;;;;;;14.93;9.55;;;15.50;99.90;;;;;;4957436;28;20047;-81
2022/05/18 04:42:39;;;;;;;15.38;10.10;;;15.50;99.90;;;;;;4957812;28;20049;-81
2022/05/18 04:45:08;;;;;;;14.95;10.10;;;15.50;99.90;;;;;;4957157;28;20070;-82
2022/05/18 04:47:34;;;;;;;15.93;10.57;;;15.60;99.90;;;;;;4957301;28;20054;-81
2022/05/18 04:49:59;;;;;;;15.63;10.15;;;15.60;99.90;;;;;;4957415;28;20038;-81
2022/05/18 04:52:25;;;;;;;14.60;10.25;;;15.60;99.90;;;;;;4941031;28;20046;-80
2022/05/18 04:54:51;;;;;;;16.17;10.48;;;15.60;99.90;;;;;;4957083;28;20038;-80
2022/05/18 04:57:17;;;;;;;15.23;10.65;;;15.70;99.90;;;;;;4957000;28;20473;-80
2022/05/18 04:59:43;;;;;;;16.58;10.80;;;15.70;99.90;;;;;;4957043;28;20042;-81
2022/05/18 05:02:09;;;;;;;14.65;10.98;;;15.70;99.90;;;;;;4956765;28;20410;-80
2022/05/18 05:04:35;;;;;;;18.50;11.40;;;15.80;99.90;;;;;;4956971;28;20054;-81
2022/05/18 05:07:01;;;;;;;17.20;11.52;;;15.80;99.90;;;;;;4956986;28;20049;-82
2022/05/18 05:09:27;;;;;;;18.45;11.48;;;15.80;99.90;;;;;;4957064;28;20126;-81
2022/05/18 05:11:53;;;;;;;16.95;11.52;;;15.90;99.90;;;;;;4974381;28;20117;-81
2022/05/18 05:14:19;;;;;;;18.80;11.25;;;15.90;99.90;;;;;;4974306;28;20035;-80
2022/05/18 05:16:46;;;;;;;19.95;12.82;;;15.90;99.90;;;;;;4974248;28;20125;-81
2022/05/18 05:19:12;;;;;;;16.52;11.20;;;16.00;99.90;;;;;;4959347;28;20035;-81
2022/05/18 05:21:42;;;;;;;18.25;11.32;;;16.00;99.90;;;;;;4961017;28;20452;-80
2022/05/18 05:24:09;;;;;;;17.00;11.68;;;16.10;99.90;;;;;;4944721;28;20101;-81
2022/05/18 05:26:35;;;;;;;19.25;12.45;;;16.10;99.90;;;;;;4960680;28;20066;-80
2022/05/18 05:29:01;;;;;;;21.40;13.05;;;16.20;99.90;;;;;;4960959;28;20050;-81
2022/05/18 05:31:27;;;;;;;17.52;13.00;;;16.20;99.90;;;;;;4960476;28;20483;-80
2022/05/18 05:33:52;;;;;;;20.35;12.85;;;16.30;99.90;;;;;;4963267;28;20043;-80
2022/05/18 05:36:19;;;;;;;19.52;12.80;;;16.30;99.90;;;;;;4963160;28;20117;-80
2022/05/18 05:38:45;;;;;;;16.55;11.55;;;16.40;99.90;;;;;;4963493;28;20395;-80
2022/05/18 05:41:11;;;;;;;18.30;12.23;;;16.50;99.90;;;;;;4980842;28;20035;-79
2022/05/18 05:43:37;;;;;;;17.55;12.20;;;16.50;99.90;;;;;;4961126;28;20148;-81
2022/05/18 05:46:05;;;;;;;20.33;12.35;;;16.60;99.90;;;;;;4960548;28;20047;-81
2022/05/18 05:48:33;;;;;;;18.63;12.07;;;16.60;99.90;;;;;;4978286;28;20042;-81
2022/05/18 05:51:00;;;;;;;20.52;12.63;;;16.70;99.90;;;;;;4961109;28;20101;-80
2022/05/18 05:53:26;;;;;;;20.85;12.13;;;16.80;99.90;;;;;;4960698;28;20470;-81
2022/05/18 05:55:53;;;;;;;17.40;11.88;;;16.90;99.90;;;;;;4960243;28;20074;-82
2022/05/18 05:58:21;;;;;;;20.63;12.90;;;16.90;99.90;;;;;;4977617;28;20049;-81
2022/05/18 06:00:47;;;;;;;21.17;12.85;;;17.00;99.90;;;;;;4960099;28;20383;-81
2022/05/18 06:03:17;;;;;;;17.55;11.88;;;17.00;99.90;;;;;;4959959;28;20097;-82
2022/05/18 06:05:43;;;;;;;21.27;13.70;;;17.10;99.90;;;;;;4959875;28;20479;-82
2022/05/18 06:08:09;;;;;;;16.33;11.75;;;17.30;99.90;;;;;;4959817;28;20054;-81
2022/05/18 06:10:35;;;;;;;17.63;11.68;;;17.30;99.90;;;;;;4959970;28;20089;-82
2022/05/18 06:13:11;;;;;;;18.45;12.20;;;17.40;99.90;;;;;;4959780;28;20050;-81
2022/05/18 06:15:37;;;;;;;18.55;11.88;;;17.60;99.90;;;;;;4960022;28;20042;-81
2022/05/18 06:18:03;;;;;;;21.02;12.40;;;17.70;99.90;;;;;;4943913;28;20039;-80
2022/05/18 06:20:30;;;;;;;17.75;11.60;;;17.80;99.90;;;;;;4959592;28;20043;-80
2022/05/18 06:22:58;;;;;;;21.73;12.00;;;17.80;99.90;;;;;;4944364;28;20061;-81
2022/05/18 06:25:24;;;;;;;18.15;11.95;;;17.80;99.90;;;;;;4959590;28;20483;-81
2022/05/18 06:27:50;;;;;;;21.63;12.40;;;17.80;99.90;;;;;;4959533;28;20053;-81
2022/05/18 06:30:16;;;;;;;19.63;11.10;;;17.90;99.90;;;;;;4959440;28;20046;-82
2022/05/18 06:32:42;;;;;;;19.63;11.38;;;17.90;99.90;;;;;;4959654;28;20051;-81
2022/05/18 06:35:08;;;;;;;16.83;11.88;;;18.00;99.90;;;;;;4959588;28;20368;-81
2022/05/18 06:37:34;;;;;;;18.67;11.27;;;18.00;99.90;;;;;;4959398;28;20045;-81
2022/05/18 06:40:03;;;;;;;16.92;12.48;;;18.10;99.90;;;;;;4943463;28;20043;-81
2022/05/18 06:42:29;;;;;;;13.65;10.23;;;18.10;99.90;;;;;;4959249;28;20043;-81
2022/05/18 06:44:55;;;;;;;15.43;11.15;;;18.30;99.90;;;;;;4959272;28;20483;-81
2022/05/18 06:47:20;;;;;;;19.17;11.25;;;18.30;99.90;;;;;;4943484;28;20073;-80
2022/05/18 06:49:47;;;;;;;14.90;11.38;;;18.40;99.90;;;;;;4959283;28;20038;-80
2022/05/18 06:52:12;;;;;;;17.58;11.40;;;18.40;99.90;;;;;;4976273;28;20121;-80
2022/05/18 06:54:38;;;;;;;15.45;11.18;;;18.50;99.90;;;;;;4959270;28;20070;-80
2022/05/18 06:57:04;;;;;;;16.65;10.98;;;18.60;99.90;;;;;;4976651;28;20134;-81
2022/05/18 06:59:30;;;;;;;18.95;10.68;;;18.70;99.90;;;;;;4959276;28;20387;-81
2022/05/18 07:01:57;;;;;;;16.85;10.90;;;18.80;99.90;;;;;;4958699;28;20050;-81
2022/05/18 07:04:24;;;;;;;13.13;10.07;;;18.90;99.90;;;;;;4958866;28;20495;-80
2022/05/18 07:06:49;;;;;;;20.08;9.98;;;18.90;99.90;;;;;;4958822;28;20203;-80
2022/05/18 07:09:18;;;;;;;14.68;10.68;;;19.00;99.90;;;;;;4959418;28;20070;-80
2022/05/18 07:11:46;;;;;;;14.98;10.50;;;19.20;99.90;;;;;;4958826;28;20046;-80
2022/05/18 07:14:13;;;;;;;16.30;10.02;;;19.40;99.90;;;;;;4959014;28;20101;-81
2022/05/18 07:16:40;;;;;;;16.98;10.48;;;19.60;99.90;;;;;;4942731;28;20034;-80
2022/05/18 07:19:06;;;;;;;16.95;9.70;;;19.70;99.90;;;;;;4958809;28;20054;-80
2022/05/18 07:21:32;;;;;;;18.63;11.18;;;19.80;99.90;;;;;;4958807;28;20068;-80
2022/05/18 07:23:58;;;;;;;17.77;10.73;;;19.90;99.90;;;;;;4958806;28;20050;-80
2022/05/18 07:26:25;;;;;;;20.23;10.95;;;20.00;99.90;;;;;;4958578;28;20050;-80
2022/05/18 07:28:51;;;;;;;17.30;10.57;;;20.10;99.90;;;;;;4958316;28;20125;-80
2022/05/18 07:31:19;;;;;;;15.57;9.55;;;20.20;99.90;;;;;;4958502;28;20459;-81
2022/05/18 07:33:45;;;;;;;14.32;9.43;;;20.40;99.90;;;;;;4958603;28;20395;-81
2022/05/18 07:36:10;;;;;;;16.00;9.82;;;20.50;99.90;;;;;;4958259;28;20042;-81
2022/05/18 07:38:38;;;;;;;13.52;9.13;;;20.50;99.90;;;;;;4958467;28;20038;-82
2022/05/18 07:41:05;;;;;;;13.10;9.38;;;20.60;99.90;;;;;;4958032;28;20054;-80
2022/05/18 07:43:30;;;;;;;14.75;9.93;;;20.60;99.90;;;;;;4958076;28;20094;-81
2022/05/18 07:45:56;;;;;;;11.65;9.27;;;20.70;99.90;;;;;;4958059;28;20047;-82
2022/05/18 07:48:23;;;;;;;17.10;10.35;;;20.80;99.90;;;;;;4958859;28;20042;-82
2022/05/18 07:50:49;;;;;;;16.27;9.55;;;20.80;99.90;;;;;;4957901;28;20454;-80
2022/05/18 07:53:15;;;;;;;17.30;9.88;;;20.80;99.90;;;;;;4957884;28;20050;-81
2022/05/18 07:55:41;;;;;;;13.73;9.35;;;20.80;99.90;;;;;;4957679;28;20557;-82
2022/05/18 07:58:09;;;;;;;13.43;9.70;;;20.80;99.90;;;;;;4941890;28;20130;-81
2022/05/18 08:00:35;;;;;;;15.25;9.95;;;20.80;99.90;;;;;;4957669;28;20046;-81
2022/05/18 08:03:02;;;;;;;14.43;9.68;;;20.90;99.90;;;;;;4957934;28;20047;-79
2022/05/18 08:05:29;;;;;;;13.50;9.10;;;21.00;99.90;;;;;;4942096;28;20487;-80
2022/05/18 08:07:55;;;;;;;15.23;9.15;;;21.10;99.90;;;;;;4974962;28;20046;-81
2022/05/18 08:15:50;;;;;;;13.80;9.07;;;21.60;99.90;;;;;;4957634;28;20043;-81
2022/05/18 08:18:17;;;;;;;15.02;9.65;;;21.70;99.90;;;;;;4957680;28;20077;-80
2022/05/18 08:20:44;;;;;;;14.93;9.05;;;21.80;99.90;;;;;;4957832;28;20051;-81
2022/05/18 08:23:11;;;;;;;14.45;9.48;;;21.80;99.90;;;;;;4957569;28;20051;-81
2022/05/18 08:25:37;;;;;;;13.90;9.30;;;21.80;99.90;;;;;;4941890;28;20085;-81
2022/05/18 08:28:04;;;;;;;16.52;10.18;;;21.90;99.90;;;;;;4957635;28;20078;-81
2022/05/18 08:30:31;;;;;;;17.20;10.10;;;22.10;99.90;;;;;;4957876;28;20117;-82
2022/05/18 08:33:01;;;;;;;18.70;10.30;;;22.20;99.90;;;;;;4941441;28;20049;-81
2022/05/18 08:35:28;;;;;;;17.63;10.63;;;22.20;99.90;;;;;;4957273;28;20101;-81
2022/05/18 08:37:55;;;;;;;15.70;10.40;;;22.30;99.90;;;;;;4957247;28;20537;-82
2022/05/18 08:40:30;;;;;;;19.17;10.13;;;22.40;99.90;;;;;;4957333;28;20467;-80
2022/05/18 08:43:00;;;;;;;15.02;10.48;;;22.40;99.90;;;;;;4957722;28;20046;-82
2022/05/18 08:45:30;;;;;;;16.73;11.35;;;22.40;99.90;;;;;;4957620;28;20084;-82
2022/05/18 08:48:06;;;;;;;14.60;11.32;;;22.40;99.90;;;;;;4957420;28;20050;-82
2022/05/18 08:50:33;;;;;;;20.20;12.43;;;22.50;99.90;;;;;;4957690;28;20399;-82
2022/05/18 08:53:16;;;;;;;15.68;11.43;;;22.50;99.90;;;;;;4973984;28;20479;-81
2022/05/18 08:55:58;;;;;;;18.30;11.02;;;22.50;99.90;;;;;;4957398;28;20406;-82
2022/05/18 08:58:48;;;;;;;14.43;11.00;;;22.60;99.90;;;;;;4974848;28;20035;-81
2022/05/18 09:01:19;;;;;;;18.35;12.55;;;22.80;99.90;;;;;;4941138;28;20094;-82
2022/05/18 09:03:53;;;;;;;20.85;12.10;;;22.80;99.90;;;;;;4975005;28;20249;-82
2022/05/18 09:06:45;;;;;;;20.17;12.63;;;22.90;99.90;;;;;;4941142;28;20042;-81
2022/05/18 09:12:03;;;;;;;17.85;12.10;;;23.00;99.90;;;;;;4956988;28;20046;-82
2022/05/18 09:14:39;;;;;;;18.25;12.02;;;23.10;99.90;;;;;;4975134;28;20109;-81
2022/05/18 09:17:25;;;;;;;17.77;11.82;;;23.20;99.90;;;;;;4957139;28;20374;-81
2022/05/18 09:20:13;;;;;;;21.48;12.18;;;23.30;99.90;;;;;;4957269;28;20043;-80
2022/05/18 09:22:50;;;;;;;22.88;12.25;;;23.50;99.90;;;;;;4957278;28;20050;-82
2022/05/18 09:25:44;;;;;;;19.83;12.80;;;23.60;99.90;;;;;;4974562;28;20129;-81
2022/05/18 09:28:21;;;;;;;17.00;12.50;;;23.70;99.90;;;;;;4957193;28;20125;-82
2022/05/18 09:31:08;;;;;;;21.23;13.50;;;23.70;99.90;;;;;;4956854;28;20090;-82
2022/05/18 09:34:16;;;;;;;19.08;12.43;;;23.80;99.90;;;;;;4956900;28;20082;-82
2022/05/18 09:37:27;;;;;;;20.77;13.77;;;24.00;99.90;;;;;;4974777;28;20423;-81
2022/05/18 09:40:21;;;;;;;16.90;12.05;;;24.10;99.90;;;;;;4974735;28;20039;-83
2022/05/18 09:43:05;;;;;;;21.48;13.77;;;24.20;99.90;;;;;;4954330;28;20117;-82
2022/05/18 09:45:34;;;;;;;19.65;13.73;;;24.20;99.90;;;;;;4957022;28;20046;-81
2022/05/18 09:48:04;;;;;;;17.17;13.80;;;24.30;99.90;;;;;;4956801;28;20046;-81
2022/05/18 09:50:29;;;;;;;20.73;13.75;;;24.30;99.90;;;;;;4974376;28;20042;-81
2022/05/18 09:52:56;;;;;;;19.73;13.93;;;24.30;99.90;;;;;;4974182;28;20058;-82
2022/05/18 09:55:25;;;;;;;19.73;12.35;;;24.10;99.90;;;;;;4941335;28;20121;-81
2022/05/18 09:57:59;;;;;;;18.55;13.20;;;24.10;99.90;;;;;;4974095;28;20479;-80
2022/05/18 10:00:27;;;;;;;20.75;13.80;;;24.10;99.90;;;;;;4956852;28;20062;-81
2022/05/18 10:08:34;;;;;;;18.30;11.55;;;24.40;99.90;;;;;;4977398;28;20042;-82
2022/05/18 10:11:09;;;;;;;18.38;12.23;;;24.50;99.90;;;;;;4977694;28;20057;-81
2022/05/18 10:13:43;;;;;;;17.75;12.38;;;24.50;99.90;;;;;;4977685;28;20615;-80
2022/05/18 10:16:27;;;;;;;17.45;11.75;;;24.50;99.90;;;;;;4977326;28;20043;-80
2022/05/18 10:18:56;;;;;;;14.60;11.40;;;24.50;99.90;;;;;;4959930;28;20038;-80
2022/05/18 10:21:26;;;;;;;19.45;12.32;;;24.60;99.90;;;;;;4977750;28;20039;-82
2022/05/18 10:23:52;;;;;;;16.30;11.68;;;24.50;99.90;;;;;;4977266;28;20105;-81
2022/05/18 10:26:31;;;;;;;13.63;11.05;;;24.50;99.90;;;;;;4960357;28;20081;-82
2022/05/18 10:29:06;;;;;;;16.17;11.32;;;24.60;99.90;;;;;;4960466;28;20052;-81
2022/05/18 10:31:40;;;;;;;15.10;11.02;;;24.70;99.90;;;;;;4944606;28;20070;-81
2022/05/18 10:34:28;;;;;;;16.50;10.27;;;24.90;99.90;;;;;;4960120;28;20046;-82
2022/05/18 10:37:00;;;;;;;15.88;11.07;;;24.80;99.90;;;;;;4960103;28;20046;-82
2022/05/18 10:39:46;;;;;;;16.23;12.43;;;25.00;99.90;;;;;;4977036;28;20046;-83
2022/05/18 10:42:25;;;;;;;14.73;9.73;;;24.70;99.90;;;;;;4960144;28;20047;-80
2022/05/18 10:44:53;;;;;;;17.88;9.88;;;24.90;99.90;;;;;;4960067;28;20070;-81
2022/05/18 10:47:35;;;;;;;15.70;10.30;;;24.70;99.90;;;;;;4959801;28;20494;-81
2022/05/18 10:50:34;;;;;;;16.20;12.13;;;25.00;99.90;;;;;;4959819;28;20043;-81
2022/05/18 10:53:20;;;;;;;16.10;11.50;;;24.90;99.90;;;;;;4942258;28;20061;-82
2022/05/18 10:55:58;;;;;;;18.38;12.48;;;24.90;99.90;;;;;;4943841;28;20056;-83
2022/05/18 10:58:51;;;;;;;13.55;10.05;;;24.50;99.90;;;;;;4959836;28;20395;-82
2022/05/18 11:01:24;;;;;;;15.35;10.52;;;24.50;99.90;;;;;;4959397;28;20455;-80
2022/05/18 11:04:07;;;;;;;13.82;9.63;;;24.60;99.90;;;;;;4976368;28;20042;-80
2022/05/18 11:06:39;;;;;;;15.30;10.30;;;24.80;99.90;;;;;;4944009;28;20046;-82
2022/05/18 11:09:29;;;;;;;14.35;10.55;;;25.00;99.90;;;;;;4959032;28;20046;-82
2022/05/18 11:12:27;;;;;;;15.00;10.48;;;25.10;99.90;;;;;;4959240;28;20049;-83
2022/05/18 11:14:58;;;;;;;15.30;10.20;;;25.10;99.90;;;;;;4942883;28;20118;-81
2022/05/18 11:17:45;;;;;;;16.20;11.27;;;25.10;99.90;;;;;;4975536;28;20455;-80
2022/05/18 11:20:26;;;;;;;15.95;11.30;;;25.00;99.90;;;;;;4976583;28;20419;-82
2022/05/18 11:23:35;;;;;;;15.57;9.90;;;24.90;99.90;;;;;;4958991;28;20043;-82
2022/05/18 11:26:45;;;;;;;14.23;11.38;;;24.90;99.90;;;;;;4976285;28;20395;-81
2022/05/18 11:29:29;;;;;;;17.27;11.50;;;25.00;99.90;;;;;;4934995;28;20402;-81
2022/05/18 11:32:13;;;;;;;15.07;11.38;;;24.90;99.90;;;;;;4942563;28;20039;-84
2022/05/18 11:34:42;;;;;;;18.77;11.47;;;25.10;99.90;;;;;;4976342;28;20464;-81
2022/05/18 11:37:21;;;;;;;16.48;11.27;;;25.40;99.90;;;;;;4975876;28;20122;-82
2022/05/18 11:39:58;;;;;;;14.45;11.25;;;25.20;99.90;;;;;;4958559;28;20038;-83
2022/05/18 11:43:25;;;;;;;19.95;11.10;;;25.20;99.90;;;;;;4975802;28;20042;-83
2022/05/18 11:45:59;;;;;;;17.98;12.50;;;25.20;99.90;;;;;;4926786;28;20062;-83
2022/05/18 11:48:36;;;;;;;15.60;11.23;;;25.30;99.90;;;;;;4942464;28;20063;-81
2022/05/18 11:51:21;;;;;;;17.30;12.75;;;25.50;99.90;;;;;;4975801;28;20391;-83
2022/05/18 11:54:24;;;;;;;18.42;12.13;;;25.40;99.90;;;;;;4975612;28;20054;-82
2022/05/18 11:57:14;;;;;;;17.33;13.07;;;25.20;99.90;;;;;;4957996;28;20054;-82
2022/05/18 11:59:55;;;;;;;17.45;11.43;;;25.20;99.90;;;;;;4942234;28;20390;-81
2022/05/18 12:02:29;;;;;;;15.75;10.85;;;25.40;99.90;;;;;;4975006;28;20043;-83
2022/05/18 12:05:32;;;;;;;18.70;12.27;;;25.70;99.90;;;;;;4975611;28;20046;-83
2022/05/18 12:08:25;;;;;;;20.45;14.15;;;26.00;99.90;;;;;;4975601;28;20130;-83
2022/05/18 12:11:26;;;;;;;18.17;13.88;;;26.10;99.90;;;;;;4957864;28;20078;-83
2022/05/18 12:14:20;;;;;;;24.63;16.35;;;25.90;99.90;;;;;;4958168;28;20058;-84
2022/05/18 12:16:54;;;;;;;20.40;15.25;;;25.60;99.90;;;;;;4975584;28;20083;-83
2022/05/18 12:19:43;;;;;;;21.02;15.38;;;25.40;99.90;;;;;;4958374;28;20505;-82
2022/05/18 12:22:14;;;;;;;24.35;15.68;;;25.40;99.90;;;;;;4958286;28;20047;-82
2022/05/18 12:24:44;;;;;;;23.38;17.33;;;25.40;99.90;;;;;;4957801;28;20047;-82
2022/05/18 12:27:14;;;;;;;23.70;18.15;;;25.20;99.90;;;;;;4957273;28;20046;-82
2022/05/18 12:29:41;;;;;;;27.25;18.40;;;25.30;99.90;;;;;;4974605;28;20062;-83
2022/05/18 12:32:09;;;;;;;28.95;20.38;;;25.10;99.90;;;;;;4975856;28;20039;-82
2022/05/18 12:34:35;;;;;;;26.95;19.70;;;25.20;99.90;;;;;;4958926;28;20054;-81
2022/05/18 12:37:12;;;;;;;30.65;20.23;;;24.80;99.90;;;;;;4957780;28;20043;-82
2022/05/18 12:39:48;;;;;;;26.52;18.38;;;24.90;99.90;;;;;;4975853;28;20039;-82
2022/05/18 12:42:20;;;;;;;25.73;17.45;;;24.80;99.90;;;;;;4958071;28;20046;-82
2022/05/18 12:45:12;;;;;;;28.10;18.73;;;24.80;99.90;;;;;;4958376;28;20105;-82
2022/05/18 12:47:47;;;;;;;21.27;15.15;;;24.70;99.90;;;;;;4958098;28;20047;-81
2022/05/18 12:50:13;;;;;;;;;;;24.40;99.90;;;;;;4958308;28;20491;-81
2022/05/18 12:52:58;;;;;;;21.02;14.35;;;24.40;99.90;;;;;;4974775;28;19933;-82
2022/05/18 12:55:54;;;;;;;22.55;14.38;;;24.50;99.90;;;;;;4974768;28;20035;-81
2022/05/18 12:58:31;;;;;;;25.33;15.80;;;24.40;99.90;;;;;;4957157;28;20046;-83
2022/05/18 13:01:07;;;;;;;23.58;15.30;;;24.50;99.90;;;;;;4957147;28;20085;-81
2022/05/18 13:04:11;;;;;;;24.92;15.10;;;24.30;99.90;;;;;;4974860;28;20050;-83
2022/05/18 13:06:36;;;;;;;21.70;14.27;;;24.70;99.90;;;;;;4862117;29;20049;-82
2022/05/18 13:09:03;;;;;;;21.33;14.15;;;24.90;99.90;;;;;;4861959;29;20532;-82
2022/05/18 13:11:44;;;;;;;19.98;13.23;;;24.90;99.90;;;;;;4906997;28;20051;-84
2022/05/18 13:14:25;;;;;;;20.67;14.93;;;24.80;99.90;;;;;;4957141;28;20053;-83
2022/05/18 13:16:50;;;;;;;22.67;13.90;;;24.80;99.90;;;;;;4956885;28;20502;-82
2022/05/18 13:19:24;;;;;;;21.63;13.18;;;24.80;99.90;;;;;;4957495;28;20039;-82
2022/05/18 13:21:59;;;;;;;22.38;16.05;;;24.90;99.90;;;;;;4941133;28;20046;-80
2022/05/18 13:24:40;;;;;;;19.42;15.73;;;25.00;99.90;;;;;;4957045;28;20558;-82
2022/05/18 13:27:11;;;;;;;24.60;15.55;;;24.70;99.90;;;;;;4974215;28;20495;-82
2022/05/18 13:29:37;;;;;;;27.13;17.90;;;24.50;99.90;;;;;;4956847;28;20125;-82
2022/05/18 13:32:07;;;;;;;25.10;16.17;;;24.40;99.90;;;;;;4940665;28;20058;-82
2022/05/18 13:34:39;;;;;;;24.70;16.25;;;24.20;99.90;;;;;;4956782;28;20042;-82
2022/05/18 13:37:05;;;;;;;26.58;18.23;;;24.20;99.90;;;;;;4957958;28;20070;-81
2022/05/18 13:39:46;;;;;;;25.38;17.10;;;23.90;99.90;;;;;;4958306;28;20047;-81
2022/05/18 13:42:17;;;;;;;27.58;17.40;;;23.90;99.90;;;;;;4960310;28;20130;-81
2022/05/18 13:44:43;;;;;;;25.80;16.77;;;23.80;99.90;;;;;;4977827;28;20034;-81
2022/05/18 13:47:12;;;;;;;26.88;18.00;;;23.80;99.90;;;;;;4960557;28;20057;-82
2022/05/18 13:49:43;;;;;;;27.40;18.10;;;23.70;99.90;;;;;;4960578;28;20042;-82
2022/05/18 13:52:15;;;;;;;23.92;16.27;;;23.80;99.90;;;;;;4960665;28;20043;-82
2022/05/18 13:54:43;;;;;;;25.45;16.92;;;24.00;99.90;;;;;;4977960;28;20039;-82
2022/05/18 13:57:15;;;;;;;22.90;16.98;;;23.60;99.90;;;;;;4960183;28;20109;-83
2022/05/18 13:59:49;;;;;;;25.13;17.38;;;23.60;99.90;;;;;;4945135;28;20435;-82
2022/05/18 14:02:30;;;;;;;24.98;16.65;;;23.70;99.90;;;;;;4960302;28;20042;-82
2022/05/18 14:04:59;;;;;;;28.92;17.17;;;23.70;99.90;;;;;;4960192;28;20055;-83
2022/05/18 14:07:29;;;;;;;25.55;15.70;;;23.90;99.90;;;;;;4977521;28;20062;-81
2022/05/18 14:09:59;;;;;;;22.25;15.48;;;24.00;99.90;;;;;;4960971;28;20046;-83
2022/05/18 14:12:24;;;;;;;24.95;15.02;;;24.00;99.90;;;;;;4943911;28;20582;-82
2022/05/18 14:14:52;;;;;;;24.80;16.20;;;24.00;99.90;;;;;;4960357;28;20133;-82
2022/05/18 14:17:24;;;;;;;22.20;15.55;;;23.80;99.90;;;;;;4977785;28;20046;-82
2022/05/18 14:19:57;;;;;;;19.73;14.32;;;23.70;99.90;;;;;;4977546;28;20122;-83
2022/05/18 14:22:28;;;;;;;24.52;15.65;;;23.70;99.90;;;;;;4960797;28;20042;-83
2022/05/18 14:25:15;;;;;;;20.48;14.00;;;23.60;99.90;;;;;;4977764;28;20491;-81
2022/05/18 14:28:10;;;;;;;21.80;13.98;;;23.50;99.90;;;;;;4960495;28;20050;-82
2022/05/18 14:30:42;;;;;;;21.00;13.48;;;23.50;99.90;;;;;;4940256;28;20447;-82
2022/05/18 14:33:36;;;;;;;23.38;14.63;;;23.30;99.90;;;;;;4959442;28;20050;-83
2022/05/18 14:36:07;;;;;;;22.17;13.85;;;23.30;99.90;;;;;;4977236;28;20395;-82
2022/05/18 14:38:37;;;;;;;18.95;13.00;;;23.10;99.90;;;;;;4959485;28;20058;-82
2022/05/18 14:41:07;;;;;;;23.67;12.32;;;22.90;99.90;;;;;;4959824;28;20118;-82
2022/05/18 14:43:33;;;;;;;17.77;11.18;;;23.00;99.90;;;;;;4959495;28;20046;-82
2022/05/18 14:46:20;;;;;;;18.02;12.18;;;23.00;99.90;;;;;;4959393;28;20062;-82
2022/05/18 14:48:50;;;;;;;18.33;12.05;;;22.80;99.90;;;;;;4943940;28;20108;-83
2022/05/18 14:51:28;;;;;;;19.10;12.45;;;22.60;99.90;;;;;;4958477;28;20376;-82
2022/05/18 14:53:56;;;;;;;17.85;12.10;;;22.70;99.90;;;;;;4976885;28;20075;-82
2022/05/18 14:56:27;;;;;;;22.10;13.57;;;22.50;99.90;;;;;;4977268;28;20042;-83
2022/05/18 14:58:58;;;;;;;23.95;13.18;;;22.40;99.90;;;;;;4959543;28;20039;-83
2022/05/18 15:01:50;;;;;;;21.73;13.32;;;22.50;99.90;;;;;;4959711;28;20488;-82
2022/05/18 15:04:26;;;;;;;25.25;13.55;;;22.40;99.90;;;;;;4966049;28;20534;-84
2022/05/18 15:06:55;;;;;;;23.15;15.05;;;22.50;99.90;;;;;;4976615;28;20093;-82
2022/05/18 15:09:28;;;;;;;23.50;16.10;;;22.70;99.90;;;;;;4959037;28;20043;-82
2022/05/18 15:12:00;;;;;;;27.60;16.02;;;22.80;99.90;;;;;;4959086;28;20043;-81
2022/05/18 15:15:01;;;;;;;29.65;16.23;;;22.90;99.90;;;;;;4959820;28;20141;-81
2022/05/18 15:17:41;;;;;;;28.88;16.75;;;22.90;99.90;;;;;;4959078;28;20058;-82
2022/05/18 15:20:16;;;;;;;27.38;16.73;;;23.00;99.90;;;;;;4976587;28;20078;-82
2022/05/18 15:22:51;;;;;;;24.15;15.88;;;23.00;99.90;;;;;;4959005;28;20090;-81
2022/05/18 15:25:31;;;;;;;25.20;15.75;;;23.00;99.90;;;;;;4959299;28;20395;-83
2022/05/18 15:27:57;;;;;;;24.60;15.30;;;22.90;99.90;;;;;;4942647;28;20125;-79
2022/05/18 15:30:23;;;;;;;23.67;15.68;;;22.90;99.90;;;;;;4975774;28;20467;-82
2022/05/18 15:32:49;;;;;;;23.77;14.15;;;23.00;99.90;;;;;;4958595;28;20506;-81
2022/05/18 15:35:21;;;;;;;21.92;13.45;;;22.90;99.90;;;;;;4959041;28;20046;-80
2022/05/18 15:37:53;;;;;;;22.75;14.18;;;22.90;99.90;;;;;;4942466;28;20043;-83
2022/05/18 15:40:19;;;;;;;22.75;15.70;;;23.00;99.90;;;;;;4975732;28;20046;-82
2022/05/18 15:42:45;;;;;;;28.80;13.60;;;23.00;99.90;;;;;;4958111;28;20518;-81
2022/05/18 15:45:11;;;;;;;22.52;13.88;;;23.20;99.90;;;;;;4975490;28;20046;-82
2022/05/18 15:47:41;;;;;;;20.45;13.45;;;23.30;99.90;;;;;;4958187;28;20046;-82
2022/05/18 15:50:15;;;;;;;21.48;12.63;;;23.60;99.90;;;;;;4958524;28;20046;-83
2022/05/18 15:52:44;;;;;;;24.15;12.52;;;23.70;99.90;;;;;;4957912;28;20053;-82
2022/05/18 15:55:16;;;;;;;23.08;12.75;;;24.00;99.90;;;;;;4958179;28;20054;-82
2022/05/18 15:57:45;;;;;;;25.88;13.85;;;24.20;99.90;;;;;;4942230;28;20415;-82
2022/05/18 16:00:16;;;;;;;20.48;13.00;;;24.30;99.90;;;;;;4975534;28;20097;-82
2022/05/18 16:02:43;;;;;;;21.80;13.50;;;24.30;99.90;;;;;;4941957;28;20058;-82
2022/05/18 16:05:10;;;;;;;20.80;12.30;;;24.20;99.90;;;;;;4958339;28;20054;-82
2022/05/18 16:07:38;;;;;;;18.38;11.98;;;24.30;99.90;;;;;;4958255;28;20050;-81
2022/05/18 16:10:05;;;;;;;19.73;11.82;;;24.20;99.90;;;;;;4957937;28;20047;-82
2022/05/18 16:12:37;;;;;;;20.83;12.30;;;24.20;99.90;;;;;;4975475;28;20050;-82